aviador You're here:

WBKT Decoded Metar

KUDAT in MALAYSIA
Report Time2017-08-20 13:00:00
UTC Time2017-08-20 13:40:53
Flight Rules vfr VFR
Wind270° at 04 kt
W.Rank270° ranks 6
Current wind is below 270° avg. (4.6)
Visibility9999 m
Phenomena:N/A
Clouds:Scattered 015 Hf
Scattered 140 Hf
Broken 270 Hf
Expected CloudBase > 1,200 ft AGL from Temp-Dew spread
Ceiling27,000 ft
Temp27°C (ISA +12)
Dew Point24°C (84% RH)
Heat Index30.1°C
QNH1007 hPa
Density Alt1,998 ft
Elevation16 ft
Report Wrong Elevation
Raw Report
WBKT 201300Z 27004KT 9999 SCT015 SCT140 BKN270 27/24 Q1007=

Extra information for WBKT:More info

Metar Taf Metar & Taf Last 4 Metars F.Rules Stats Wind Profile Meteogram Temp Stats Airport Information Weather charts Add Link Nearby VenuesMetar ALERT Operation Metar Decoded Social comments